Flight Briefing for CMB828

Departure Arrival
Daniel K Inouye International Airport (PHNL)
Click to view FAA NOTAMS
Wake Island Airfield (PWAK)
Click to view FAA NOTAMS
Departure Time Arrival Time
N/A N/A
Aircraft Distance
B757-200SF 1998nm
Departure METAR Arrival METAR
PHNL 221153Z 05007KT 10SM FEW025 23/16 A3009 RMK AO2 SLP187 T02330161 10239 20228 58016 PWAK 221158Z AUTO 22004KT 9999 SCT017 25/22 A2985 RMK AO2 SLP115 50007
Suggested Route
KEOLA2 PUPPI 2200N/17000W 2200N/18000E 2100N/17000E AWK


View recent IFR Routes data
Notes
USTRANSCOM CONTRACT FLIGHT | LIMITED FUEL AVBL TO NON-DOD ACFT, TANKERING RCMD

Charts and Procedures

Charts for PHNL
No chart available
Charts for PWAK
No chart available

Windy.com Weather Map